Latest Weather Observations for Mount Lofty

IDS60801

Issued at 8:05 pm CST Saturday 19 April 2014 (issued every 30 minutes, with the page automatically refreshed every 10 minutes)

About weather observations | Map of weather stations | Latest weather observations for SA | Other Formats
Station Details ID: 023842 Name: MOUNT LOFTY Lat: -34.98 Lon: 138.71 Height: 685.0 m
Data from the previous 72 hours. | See also: Recent months at Mount Lofty
Date/Time
CST
Temp
°C
App
Temp
°C
Dew
Point
Rel
Hum
%
Delta-T
°C
Wind Press
QNH
hPa
Press
MSL
hPa
Rain
since 9 am
mm
Dir
 
Spd
km/h
Gust
km/h
Spd
kts
Gust
kts
19/08:00pm 8.2 6.2 6.2 87 1.0 ESE 6 7 3 4 - - 0.0
19/07:30pm 8.4 6.8 6.2 86 1.0 ESE 4 7 2 4 - - 0.0
19/07:00pm 8.6 7.0 6.2 85 1.1 SE 4 7 2 4 - - 0.0
19/06:30pm 8.6 6.6 6.4 86 1.1 SSE 6 13 3 7 - - 0.0
19/06:00pm 9.3 7.8 6.7 84 1.3 SSW 4 7 2 4 - - 0.0
19/05:30pm 10.4 9.0 7.1 80 1.6 WSW 4 7 2 4 - - 0.0
19/05:00pm 10.8 8.8 6.4 74 2.1 SW 6 11 3 6 - - 0.0
19/04:30pm 11.2 9.9 6.1 71 2.5 SSW 2 4 1 2 - - 0.0
19/04:00pm 11.7 10.0 6.0 68 2.8 SSW 4 7 2 4 - - 0.0
19/03:30pm 12.0 10.4 4.5 60 3.5 SSE 2 4 1 2 - - 0.0
19/03:00pm 12.1 10.8 4.3 59 3.7 CALM 0 0 0 0 - - 0.0
19/02:30pm 11.9 9.9 4.2 59 3.6 SSE 4 6 2 3 - - 0.0
19/02:00pm 12.0 10.3 4.2 59 3.7 SSW 2 6 1 3 - - 0.0
19/01:30pm 12.2 10.3 5.1 62 3.4 E 4 6 2 3 - - 0.0
19/01:00pm 11.9 10.7 4.4 60 3.5 CALM 0 4 0 2 - - 0.0
19/12:30pm 11.7 9.5 3.5 57 3.8 SE 4 7 2 4 - - 0.0
19/12:00pm 12.2 10.0 5.1 62 3.4 SSE 6 9 3 5 - - 0.0
19/11:30am 12.0 9.5 4.0 58 3.7 SE 6 13 3 7 - - 0.0
19/11:00am 12.1 9.9 5.5 64 3.2 ENE 6 11 3 6 - - 0.0
19/10:30am 11.6 9.3 5.0 64 3.1 ENE 6 13 3 7 - - 0.0
19/10:00am 10.8 9.3 5.1 68 2.7 ESE 2 7 1 4 - - 0.0
19/09:30am 10.0 8.0 4.6 69 2.5 ENE 4 7 2 4 - - 0.0
19/09:00am 9.6 8.2 5.6 76 1.9 E 2 6 1 3 - - 0.0
19/08:30am 9.0 7.6 5.4 78 1.7 E 2 6 1 3 - - 0.0
19/08:00am 8.5 7.1 5.4 81 1.5 NE 2 6 1 3 - - 0.0
19/07:30am 7.9 7.0 6.2 89 0.8 CALM 0 6 0 3 - - 0.0
19/07:00am 7.5 6.7 6.3 92 0.6 CALM 0 0 0 0 - - 0.0
19/06:30am 7.3 6.2 7.0 98 0.1 ESE 2 4 1 2 - - 0.0
19/06:00am 7.0 6.3 6.9 99 0.0 E 0 0 0 0 - - 0.0
19/05:30am 6.3 5.4 6.2 99 0.0 CALM 0 0 0 0 - - 0.0
19/05:00am 6.3 5.0 6.0 98 0.1 ESE 2 4 1 2 - - 0.0
19/04:30am 6.8 5.2 6.5 98 0.1 ESE 4 9 2 5 - - 0.0
19/04:00am 6.6 5.3 6.0 96 0.3 ESE 2 6 1 3 - - 0.0
19/03:30am 6.7 5.4 5.8 94 0.4 ESE 2 4 1 2 - - 0.0
19/03:00am 6.7 5.4 6.0 95 0.3 SE 2 6 1 3 - - 0.0
19/02:30am 6.7 5.8 6.1 96 0.3 CALM 0 2 0 1 - - 0.0
19/02:00am 7.0 5.7 6.1 94 0.4 SE 2 6 1 3 - - 0.0
19/01:30am 7.5 6.6 6.1 91 0.7 CALM 0 4 0 2 - - 0.0
19/01:00am 8.2 7.0 6.5 89 0.8 SE 2 9 1 5 - - 0.0
19/12:30am 8.4 6.8 6.4 87 1.0 SSE 4 9 2 5 - - 0.0
19/12:00am 8.2 6.9 6.0 86 1.0 SSE 2 7 1 4 - - 0.0
 
Date/Time
CST
Temp
°C
App
Temp
°C
Dew
Point
Rel
Hum
%
Delta-T
°C
Wind Press
QNH
hPa
Press
MSL
hPa
Rain
since 9 am
mm
Dir
 
Spd
km/h
Gust
km/h
Spd
kts
Gust
kts
18/11:30pm 8.0 6.3 6.0 87 0.9 SSE 4 7 2 4 - - 0.0
18/11:00pm 7.5 6.1 5.6 88 0.9 ESE 2 11 1 6 - - 0.0
18/10:30pm 7.7 6.1 6.2 90 0.7 SE 4 9 2 5 - - 0.0
18/10:00pm 7.7 6.1 6.2 90 0.7 SE 4 11 2 6 - - 0.0
18/09:30pm 7.7 6.0 6.0 89 0.8 SE 4 11 2 6 - - 0.0
18/09:00pm 7.8 6.1 6.1 89 0.8 SE 4 7 2 4 - - 0.0
18/08:30pm 7.9 6.1 5.5 85 1.1 SSE 4 9 2 5 - - 0.0
18/08:00pm 8.1 5.8 5.0 81 1.4 SE 6 11 3 6 - - 0.0
18/07:30pm 7.8 5.7 4.0 77 1.7 SE 4 7 2 4 - - 0.0
18/07:00pm 8.0 5.9 4.0 76 1.8 ESE 4 7 2 4 - - 0.0
18/06:30pm 8.0 6.0 4.6 79 1.6 ESE 4 7 2 4 - - 0.0
18/06:00pm 8.6 7.0 4.6 76 1.8 SE 2 7 1 4 - - 0.0
18/05:30pm 9.6 7.3 4.6 71 2.3 SE 6 11 3 6 - - 0.0
18/05:00pm 10.6 8.8 5.2 69 2.6 SSE 4 15 2 8 - - 0.0
18/04:30pm 11.6 9.2 5.3 65 3.0 S 7 17 4 9 - - 0.0
18/04:00pm 12.0 9.8 5.4 64 3.2 SE 6 17 3 9 - - 0.0
18/03:30pm 13.2 11.1 5.6 60 3.7 SSE 6 15 3 8 - - 0.0
18/03:00pm 13.4 10.8 4.3 54 4.3 SSE 7 15 4 8 - - 0.0
18/02:30pm 13.9 11.7 5.3 56 4.2 ESE 6 13 3 7 - - 0.0
18/02:00pm 14.1 12.0 6.7 61 3.7 SSE 7 15 4 8 - - 0.0
18/01:30pm 13.9 12.7 7.9 67 3.1 SSE 4 9 2 5 - - 0.0
18/01:00pm 14.4 12.9 8.4 67 3.1 S 6 11 3 6 - - 0.0
18/12:30pm 14.4 12.8 8.6 68 3.0 SSW 7 13 4 7 - - 0.0
18/12:00pm 13.7 12.1 8.7 72 2.6 SSW 7 11 4 6 - - 0.0
18/11:30am 14.0 12.7 10.0 77 2.1 SW 7 13 4 7 - - 0.0
18/11:00am 12.7 11.3 9.5 81 1.7 SW 7 15 4 8 - - 0.0
18/10:30am 12.6 11.9 12.1 97 0.3 SSW 7 15 4 8 - - 0.0
18/10:00am 12.4 11.8 12.4 100 0.0 SSW 7 19 4 10 - - 0.0
18/09:30am 11.9 11.2 11.9 100 0.0 S 7 19 4 10 - - 0.0
18/09:00am 11.5 10.6 11.5 100 0.0 SSW 7 15 4 8 - - 3.8
18/08:30am 11.4 10.1 11.4 100 0.0 SSW 9 26 5 14 - - 3.8
18/08:00am 11.2 9.5 11.2 100 0.0 SW 11 26 6 14 - - 3.8
18/07:30am 11.6 10.0 11.6 100 0.0 W 11 28 6 15 - - 3.2
18/07:00am 12.4 11.4 12.4 100 0.0 W 9 20 5 11 - - 0.8
18/06:30am 12.4 10.7 12.4 100 0.0 W 13 28 7 15 - - 0.6
18/06:00am 12.3 10.9 12.3 100 0.0 W 11 32 6 17 - - 0.6
18/05:30am 12.2 11.2 12.2 100 0.0 W 9 20 5 11 - - 0.2
18/05:00am 12.2 10.8 12.2 100 0.0 W 11 24 6 13 - - 0.0
18/04:30am 12.1 11.0 12.1 100 0.0 W 9 17 5 9 - - 0.0
18/04:00am 12.0 10.9 12.0 100 0.0 W 9 19 5 10 - - 0.0
18/03:30am 11.8 10.3 11.8 100 0.0 W 11 20 6 11 - - 0.0
18/03:00am 11.9 10.0 11.9 100 0.0 W 13 30 7 16 - - 0.0
18/02:30am 12.2 10.4 12.2 100 0.0 W 13 24 7 13 - - 0.0
18/02:00am 12.8 10.4 12.8 100 0.0 W 17 30 9 16 - - 0.0
18/01:30am 12.9 10.6 12.9 100 0.0 W 17 32 9 17 - - 0.0
18/01:00am 12.8 11.2 12.8 100 0.0 W 13 26 7 14 - - 0.0
18/12:30am 12.6 11.3 12.6 100 0.0 W 11 24 6 13 - - 0.0
18/12:00am 12.5 11.0 12.0 97 0.3 W 11 22 6 12 - - 0.0
 
Date/Time
CST
Temp
°C
App
Temp
°C
Dew
Point
Rel
Hum
%
Delta-T
°C
Wind Press
QNH
hPa
Press
MSL
hPa
Rain
since 9 am
mm
Dir
 
Spd
km/h
Gust
km/h
Spd
kts
Gust
kts
17/11:30pm 12.8 11.6 11.7 93 0.6 W 9 22 5 12 - - 0.0
17/11:00pm 13.1 11.4 11.2 88 1.0 W 11 22 6 12 - - 0.0
17/10:30pm 13.5 11.2 10.5 82 1.6 W 13 26 7 14 - - 0.0
17/10:00pm 13.9 11.5 9.9 77 2.1 W 13 26 7 14 - - 0.0
17/09:30pm 14.1 11.3 10.1 77 2.2 WNW 15 22 8 12 - - 0.0
17/09:00pm 14.1 12.1 10.1 77 2.2 WNW 11 22 6 12 - - 0.0
17/08:30pm 14.2 12.2 10.0 76 2.3 WNW 11 17 6 9 - - 0.0
17/08:00pm 14.2 11.8 10.0 76 2.3 WNW 13 17 7 9 - - 0.0
17/07:30pm 14.2 12.2 10.0 76 2.3 WNW 11 17 6 9 - - 0.0
17/07:00pm 14.2 12.9 10.0 76 2.3 WNW 7 15 4 8 - - 0.0
17/06:30pm 14.3 12.7 10.1 76 2.3 WNW 9 15 5 8 - - 0.0
17/06:00pm 14.3 13.2 9.9 75 2.4 WNW 6 11 3 6 - - 0.0
17/05:30pm 15.0 13.3 9.8 71 2.8 WNW 9 17 5 9 - - 0.0
17/05:00pm 15.9 13.8 9.8 67 3.3 WNW 11 19 6 10 - - 0.0
17/04:30pm 16.7 14.8 9.1 61 4.1 W 9 15 5 8 - - 0.0
17/04:00pm 17.1 15.3 9.3 60 4.2 WNW 9 17 5 9 - - 0.0
17/03:30pm 16.7 15.3 9.4 62 3.9 W 7 17 4 9 - - 0.0
17/03:00pm 17.2 15.3 8.9 58 4.4 WNW 9 19 5 10 - - 0.0
17/02:30pm 17.0 15.1 8.9 59 4.3 WNW 9 17 5 9 - - 0.0
17/02:00pm 17.0 15.2 9.4 61 4.1 WNW 9 13 5 7 - - 0.0
17/01:30pm 16.3 15.4 10.8 70 3.0 W 6 9 3 5 - - 0.0
17/01:00pm 15.4 14.3 10.6 73 2.6 WNW 7 17 4 9 - - 0.0
17/12:30pm 15.8 14.5 9.9 68 3.2 WNW 7 15 4 8 - - 0.0
17/12:00pm 15.4 14.5 10.8 74 2.5 W 6 11 3 6 - - 0.0
17/11:30am 14.9 14.2 11.5 80 1.9 W 6 13 3 7 - - 0.0
17/11:00am 14.8 14.4 12.5 86 1.3 W 6 11 3 6 - - 0.0
17/10:30am 14.2 14.0 12.9 92 0.7 W 6 11 3 6 - - 0.0
17/10:00am 13.2 12.9 13.2 100 0.0 WNW 7 13 4 7 - - 0.0
17/09:30am 13.3 13.0 13.3 100 0.0 WNW 7 11 4 6 - - 0.0
17/09:00am 12.9 12.5 12.9 100 0.0 WNW 7 13 4 7 - - 0.0
17/08:30am 12.3 11.9 12.3 100 0.0 WNW 6 9 3 5 - - 0.0
17/08:00am 12.1 11.4 12.1 100 0.0 WNW 7 13 4 7 - - 0.0
17/07:30am 11.9 10.8 11.9 100 0.0 WNW 9 13 5 7 - - 0.0
17/07:00am 11.7 10.9 11.7 100 0.0 W 7 15 4 8 - - 0.0
17/06:30am 11.3 10.4 11.3 100 0.0 W 7 15 4 8 - - 0.0
17/06:00am 11.4 10.7 11.4 100 0.0 W 6 9 3 5 - - 0.0
17/05:30am 11.6 11.0 11.6 100 0.0 W 6 9 3 5 - - 0.0
17/05:00am 11.1 10.3 11.1 100 0.0 WNW 6 9 3 5 - - 0.0
17/04:30am 11.2 10.3 11.2 100 0.0 WNW 7 9 4 5 - - 0.0
17/04:00am 11.8 11.2 11.8 100 0.0 W 6 9 3 5 - - 0.0
17/03:30am 11.6 11.0 11.6 100 0.0 W 6 9 3 5 - - 0.0
17/03:00am 11.4 10.7 11.4 100 0.0 W 6 11 3 6 - - 0.0
17/02:30am 12.0 11.5 12.0 100 0.0 W 6 9 3 5 - - 0.0
17/02:00am 11.9 11.4 11.9 100 0.0 W 6 11 3 6 - - 0.0
17/01:30am 11.6 11.3 11.4 99 0.1 W 4 7 2 4 - - 0.0
17/01:00am 11.2 10.2 10.3 94 0.5 W 6 9 3 5 - - 0.0
17/12:30am 11.3 10.4 9.4 88 1.0 W 4 6 2 3 - - 0.0
17/12:00am 11.7 10.5 8.0 78 1.9 W 4 6 2 3 - - 0.0
 
Date/Time
CST
Temp
°C
App
Temp
°C
Dew
Point
Rel
Hum
%
Delta-T
°C
Wind Press
QNH
hPa
Press
MSL
hPa
Rain
since 9 am
mm
Dir
 
Spd
km/h
Gust
km/h
Spd
kts
Gust
kts
16/11:30pm 12.1 10.6 7.0 71 2.5 W 4 6 2 3 - - 0.0
16/11:00pm 12.1 10.7 7.2 72 2.5 W 4 6 2 3 - - 0.0
16/10:30pm 11.7 10.2 6.8 72 2.4 WSW 4 7 2 4 - - 0.0
16/10:00pm 11.6 10.9 6.9 73 2.3 CALM 0 0 0 0 - - 0.0
16/09:30pm 12.0 11.3 7.1 72 2.4 CALM 0 0 0 0 - - 0.0
16/09:00pm 12.7 12.1 7.2 69 2.8 CALM 0 0 0 0 - - 0.0
16/08:30pm 12.7 11.3 7.2 69 2.8 SW 4 6 2 3 - - 0.0

Other Formats:

Comma delimited format used in spreadsheet applications
http://www.bom.gov.au/fwo/IDS60801/IDS60801.95678.axf

JavaScript Object Notation format (JSON) in row-major order
http://www.bom.gov.au/fwo/IDS60801/IDS60801.95678.json